sensor_id;sensor_type;location;lat;lon;timestamp;pressure;altitude;pressure_sealevel;temperature;humidity
44297;BME280;51842;47.450;8.654;2024-02-26T00:00:01;93553.94;;;5.05;84.76
44297;BME280;51842;47.450;8.654;2024-02-26T00:02:27;93563.94;;;5.08;85.12
44297;BME280;51842;47.450;8.654;2024-02-26T00:04:53;93565.22;;;5.10;84.41
44297;BME280;51842;47.450;8.654;2024-02-26T00:07:19;93567.59;;;5.12;83.97
44297;BME280;51842;47.450;8.654;2024-02-26T00:09:44;93564.94;;;5.12;83.95
44297;BME280;51842;47.450;8.654;2024-02-26T00:12:10;93575.78;;;5.10;84.14
44297;BME280;51842;47.450;8.654;2024-02-26T00:14:36;93579.22;;;5.11;85.20
44297;BME280;51842;47.450;8.654;2024-02-26T00:17:02;93577.13;;;5.08;86.25
44297;BME280;51842;47.450;8.654;2024-02-26T00:19:28;93578.41;;;5.10;84.39
44297;BME280;51842;47.450;8.654;2024-02-26T00:21:54;93568.16;;;5.09;83.40
44297;BME280;51842;47.450;8.654;2024-02-26T00:24:21;93570.50;;;5.10;83.56
44297;BME280;51842;47.450;8.654;2024-02-26T00:26:47;93567.28;;;5.14;82.94
44297;BME280;51842;47.450;8.654;2024-02-26T00:29:19;93572.09;;;5.12;81.93
44297;BME280;51842;47.450;8.654;2024-02-26T00:31:45;93565.72;;;5.13;81.74
44297;BME280;51842;47.450;8.654;2024-02-26T00:34:11;93564.38;;;5.15;83.17
44297;BME280;51842;47.450;8.654;2024-02-26T00:36:36;93561.75;;;5.15;85.38
44297;BME280;51842;47.450;8.654;2024-02-26T00:39:02;93559.94;;;5.10;87.49
44297;BME280;51842;47.450;8.654;2024-02-26T00:41:29;93566.50;;;5.13;87.05
44297;BME280;51842;47.450;8.654;2024-02-26T00:43:55;93564.94;;;5.12;85.65
44297;BME280;51842;47.450;8.654;2024-02-26T00:46:21;93565.72;;;5.13;84.83
44297;BME280;51842;47.450;8.654;2024-02-26T00:48:47;93568.16;;;5.09;83.28
44297;BME280;51842;47.450;8.654;2024-02-26T00:51:12;93575.28;;;5.08;83.36
44297;BME280;51842;47.450;8.654;2024-02-26T00:53:38;93579.22;;;5.11;83.03
44297;BME280;51842;47.450;8.654;2024-02-26T00:56:04;93577.63;;;5.10;83.99
44297;BME280;51842;47.450;8.654;2024-02-26T00:58:30;93569.72;;;5.10;83.53
44297;BME280;51842;47.450;8.654;2024-02-26T01:00:56;93569.72;;;5.10;83.13
44297;BME280;51842;47.450;8.654;2024-02-26T01:03:22;93572.34;;;5.10;83.64
44297;BME280;51842;47.450;8.654;2024-02-26T01:05:48;93581.91;;;5.06;82.01
44297;BME280;51842;47.450;8.654;2024-02-26T01:08:14;93593.53;;;5.05;81.97
44297;BME280;51842;47.450;8.654;2024-02-26T01:10:39;93595.09;;;5.06;82.09
44297;BME280;51842;47.450;8.654;2024-02-26T01:13:05;93596.16;;;5.05;81.95
44297;BME280;51842;47.450;8.654;2024-02-26T01:15:33;93593.53;;;5.05;81.51
44297;BME280;51842;47.450;8.654;2024-02-26T01:17:59;93591.66;;;5.05;81.52
44297;BME280;51842;47.450;8.654;2024-02-26T01:20:25;93594.03;;;5.07;80.92
44297;BME280;51842;47.450;8.654;2024-02-26T01:22:50;93591.94;;;5.04;79.99
44297;BME280;51842;47.450;8.654;2024-02-26T01:25:16;93596.72;;;5.02;80.04
44297;BME280;51842;47.450;8.654;2024-02-26T01:27:42;93597.22;;;5.04;79.40
44297;BME280;51842;47.450;8.654;2024-02-26T01:30:10;93596.94;;;5.05;78.44
44297;BME280;51842;47.450;8.654;2024-02-26T01:32:36;93593.22;;;5.06;78.02
44297;BME280;51842;47.450;8.654;2024-02-26T01:35:03;93589.25;;;5.09;77.81
44297;BME280;51842;47.450;8.654;2024-02-26T01:37:29;93596.63;;;5.12;78.37
44297;BME280;51842;47.450;8.654;2024-02-26T01:39:56;93589.53;;;5.07;77.21
44297;BME280;51842;47.450;8.654;2024-02-26T01:42:21;93591.13;;;5.08;77.28
44297;BME280;51842;47.450;8.654;2024-02-26T01:44:47;93585.53;;;5.10;77.50
44297;BME280;51842;47.450;8.654;2024-02-26T01:47:14;93587.41;;;5.09;77.72
44297;BME280;51842;47.450;8.654;2024-02-26T01:49:41;93583.69;;;5.10;78.08
44297;BME280;51842;47.450;8.654;2024-02-26T01:52:10;93585.78;;;5.14;78.72
44297;BME280;51842;47.450;8.654;2024-02-26T01:54:38;93586.28;;;5.16;79.08
44297;BME280;51842;47.450;8.654;2024-02-26T01:57:08;93590.22;;;5.18;78.93
44297;BME280;51842;47.450;8.654;2024-02-26T01:59:35;93589.94;;;5.20;79.13
44297;BME280;51842;47.450;8.654;2024-02-26T02:02:07;93590.75;;;5.20;79.46
44297;BME280;51842;47.450;8.654;2024-02-26T02:04:36;93592.31;;;5.21;80.17
44297;BME280;51842;47.450;8.654;2024-02-26T02:07:03;93587.28;;;5.20;80.38
44297;BME280;51842;47.450;8.654;2024-02-26T02:09:30;93584.91;;;5.23;80.49
44297;BME280;51842;47.450;8.654;2024-02-26T02:11:59;93575.13;;;5.24;81.03
44297;BME280;51842;47.450;8.654;2024-02-26T02:14:26;93575.63;;;5.26;81.78
44297;BME280;51842;47.450;8.654;2024-02-26T02:16:52;93578.78;;;5.28;82.34
44297;BME280;51842;47.450;8.654;2024-02-26T02:19:18;93568.44;;;5.31;82.49
44297;BME280;51842;47.450;8.654;2024-02-26T02:21:43;93577.16;;;5.32;83.25
44297;BME280;51842;47.450;8.654;2024-02-26T02:24:09;93568.66;;;5.35;83.38
44297;BME280;51842;47.450;8.654;2024-02-26T02:26:35;93568.09;;;5.38;83.71
44297;BME280;51842;47.450;8.654;2024-02-26T02:29:03;93567.84;;;5.40;84.08
44297;BME280;51842;47.450;8.654;2024-02-26T02:31:29;93564.63;;;5.43;84.11
44297;BME280;51842;47.450;8.654;2024-02-26T02:33:55;93566.97;;;5.44;83.89
44297;BME280;51842;47.450;8.654;2024-02-26T02:36:21;93556.72;;;5.43;84.12
44297;BME280;51842;47.450;8.654;2024-02-26T02:38:51;93562.00;;;5.43;84.85
44297;BME280;51842;47.450;8.654;2024-02-26T02:41:18;93556.72;;;5.43;84.95
44297;BME280;51842;47.450;8.654;2024-02-26T02:43:45;93557.19;;;5.45;84.89
44297;BME280;51842;47.450;8.654;2024-02-26T02:46:10;93551.69;;;5.41;85.95
44297;BME280;51842;47.450;8.654;2024-02-26T02:48:41;93541.31;;;5.26;88.98
44297;BME280;51842;47.450;8.654;2024-02-26T02:51:09;93540.09;;;5.18;89.76
44297;BME280;51842;47.450;8.654;2024-02-26T02:53:34;93540.53;;;5.25;89.91
44297;BME280;51842;47.450;8.654;2024-02-26T02:56:00;93537.41;;;5.23;89.91
44297;BME280;51842;47.450;8.654;2024-02-26T02:58:26;93539.44;;;5.26;90.29
44297;BME280;51842;47.450;8.654;2024-02-26T03:00:52;93539.69;;;5.30;89.74
44297;BME280;51842;47.450;8.654;2024-02-26T03:03:17;93539.69;;;5.30;90.77
44297;BME280;51842;47.450;8.654;2024-02-26T03:05:43;93540.47;;;5.30;90.65
44297;BME280;51842;47.450;8.654;2024-02-26T03:08:09;93536.75;;;5.31;90.65
44297;BME280;51842;47.450;8.654;2024-02-26T03:10:35;93528.63;;;5.28;91.57
44297;BME280;51842;47.450;8.654;2024-02-26T03:13:01;93518.84;;;5.28;91.32
44297;BME280;51842;47.450;8.654;2024-02-26T03:15:27;93514.63;;;5.27;91.82
44297;BME280;51842;47.450;8.654;2024-02-26T03:17:52;93509.06;;;5.29;91.64
44297;BME280;51842;47.450;8.654;2024-02-26T03:20:18;93507.50;;;5.28;91.49
44297;BME280;51842;47.450;8.654;2024-02-26T03:22:45;93511.00;;;5.23;92.62
44297;BME280;51842;47.450;8.654;2024-02-26T03:25:11;93501.84;;;5.16;93.07
44297;BME280;51842;47.450;8.654;2024-02-26T03:27:37;93511.16;;;5.08;92.60
44297;BME280;51842;47.450;8.654;2024-02-26T03:30:03;93513.31;;;5.01;90.96
44297;BME280;51842;47.450;8.654;2024-02-26T03:32:29;93521.88;;;4.93;90.24
44297;BME280;51842;47.450;8.654;2024-02-26T03:34:55;93511.91;;;4.84;90.16
44297;BME280;51842;47.450;8.654;2024-02-26T03:37:21;93506.50;;;4.71;88.35
44297;BME280;51842;47.450;8.654;2024-02-26T03:39:47;93499.19;;;4.62;87.50
44297;BME280;51842;47.450;8.654;2024-02-26T03:42:13;93512.56;;;4.71;87.43
44297;BME280;51842;47.450;8.654;2024-02-26T03:44:39;93531.03;;;4.71;87.76
44297;BME280;51842;47.450;8.654;2024-02-26T03:47:04;93534.47;;;4.67;89.46
44297;BME280;51842;47.450;8.654;2024-02-26T03:49:30;93540.59;;;4.62;90.57
44297;BME280;51842;47.450;8.654;2024-02-26T03:51:56;93532.47;;;4.58;90.87
44297;BME280;51842;47.450;8.654;2024-02-26T03:54:22;93523.78;;;4.58;89.91
44297;BME280;51842;47.450;8.654;2024-02-26T03:56:48;93534.88;;;4.55;89.58
44297;BME280;51842;47.450;8.654;2024-02-26T03:59:14;93528.84;;;4.49;89.34
44297;BME280;51842;47.450;8.654;2024-02-26T04:01:45;93542.34;;;4.43;90.71
44297;BME280;51842;47.450;8.654;2024-02-26T04:04:11;93538.94;;;4.37;91.65
44297;BME280;51842;47.450;8.654;2024-02-26T04:06:36;93554.25;;;4.35;92.36
44297;BME280;51842;47.450;8.654;2024-02-26T04:09:02;93566.63;;;4.34;92.40
44297;BME280;51842;47.450;8.654;2024-02-26T04:11:29;93571.91;;;4.34;92.45
44297;BME280;51842;47.450;8.654;2024-02-26T04:13:56;93577.72;;;4.36;92.56
44297;BME280;51842;47.450;8.654;2024-02-26T04:16:22;93575.34;;;4.35;92.83
44297;BME280;51842;47.450;8.654;2024-02-26T04:18:48;93578.75;;;4.35;92.72
44297;BME280;51842;47.450;8.654;2024-02-26T04:21:14;93589.28;;;4.35;93.59
44297;BME280;51842;47.450;8.654;2024-02-26T04:23:40;93595.09;;;4.37;93.38
44297;BME280;51842;47.450;8.654;2024-02-26T04:26:06;93596.41;;;4.40;93.74
44297;BME280;51842;47.450;8.654;2024-02-26T04:28:32;93602.19;;;4.42;93.98
44297;BME280;51842;47.450;8.654;2024-02-26T04:30:58;93597.72;;;4.43;93.92
44297;BME280;51842;47.450;8.654;2024-02-26T04:33:23;93600.06;;;4.44;94.48
44297;BME280;51842;47.450;8.654;2024-02-26T04:35:49;93599.50;;;4.47;94.77
44297;BME280;51842;47.450;8.654;2024-02-26T04:38:15;93597.38;;;4.49;94.79
44297;BME280;51842;47.450;8.654;2024-02-26T04:40:41;93603.97;;;4.52;94.33
44297;BME280;51842;47.450;8.654;2024-02-26T04:43:07;93608.69;;;4.55;94.84
44297;BME280;51842;47.450;8.654;2024-02-26T04:45:32;93608.16;;;4.58;95.86
44297;BME280;51842;47.450;8.654;2024-02-26T04:47:59;93618.88;;;4.67;95.80
44297;BME280;51842;47.450;8.654;2024-02-26T04:50:25;93607.53;;;4.71;95.31
44297;BME280;51842;47.450;8.654;2024-02-26T04:52:51;93606.19;;;4.74;95.36
44297;BME280;51842;47.450;8.654;2024-02-26T04:55:16;93602.19;;;4.76;95.90
44297;BME280;51842;47.450;8.654;2024-02-26T04:57:42;93596.66;;;4.78;96.39
44297;BME280;51842;47.450;8.654;2024-02-26T05:00:09;93597.44;;;4.78;95.81
44297;BME280;51842;47.450;8.654;2024-02-26T05:02:35;93592.16;;;4.78;95.58
44297;BME280;51842;47.450;8.654;2024-02-26T05:05:06;93604.28;;;4.79;95.57
44297;BME280;51842;47.450;8.654;2024-02-26T05:07:32;93595.34;;;4.75;96.21
44297;BME280;51842;47.450;8.654;2024-02-26T05:09:58;93598.31;;;4.69;97.43
44297;BME280;51842;47.450;8.654;2024-02-26T05:12:24;93600.38;;;4.72;97.43
44297;BME280;51842;47.450;8.654;2024-02-26T05:14:50;93609.59;;;4.74;97.52
44297;BME280;51842;47.450;8.654;2024-02-26T05:17:16;93604.03;;;4.76;98.11
44297;BME280;51842;47.450;8.654;2024-02-26T05:19:42;93614.34;;;4.72;98.97
44297;BME280;51842;47.450;8.654;2024-02-26T05:22:08;93615.94;;;4.73;98.80
44297;BME280;51842;47.450;8.654;2024-02-26T05:24:33;93622.78;;;4.74;98.58
44297;BME280;51842;47.450;8.654;2024-02-26T05:27:00;93618.84;;;4.72;98.66
44297;BME280;51842;47.450;8.654;2024-02-26T05:29:26;93625.69;;;4.73;98.67
44297;BME280;51842;47.450;8.654;2024-02-26T05:31:52;93630.47;;;4.71;98.35
44297;BME280;51842;47.450;8.654;2024-02-26T05:34:20;93621.81;;;4.60;99.66
44297;BME280;51842;47.450;8.654;2024-02-26T05:36:45;93617.31;;;4.66;99.12
44297;BME280;51842;47.450;8.654;2024-02-26T05:39:11;93620.72;;;4.66;99.14
44297;BME280;51842;47.450;8.654;2024-02-26T05:41:37;93627.84;;;4.66;99.17
44297;BME280;51842;47.450;8.654;2024-02-26T05:44:03;93618.94;;;4.61;99.96
44297;BME280;51842;47.450;8.654;2024-02-26T05:46:29;93621.81;;;4.60;100.00
44297;BME280;51842;47.450;8.654;2024-02-26T05:48:55;93630.56;;;4.55;100.00
44297;BME280;51842;47.450;8.654;2024-02-26T05:51:21;93628.47;;;4.52;100.00
44297;BME280;51842;47.450;8.654;2024-02-26T05:53:47;93622.69;;;4.50;100.00
44297;BME280;51842;47.450;8.654;2024-02-26T05:56:20;93631.94;;;4.48;100.00
44297;BME280;51842;47.450;8.654;2024-02-26T05:58:46;93630.13;;;4.43;100.00
44297;BME280;51842;47.450;8.654;2024-02-26T06:01:13;93636.72;;;4.40;100.00
44297;BME280;51842;47.450;8.654;2024-02-26T06:03:39;93642.53;;;4.37;100.00
44297;BME280;51842;47.450;8.654;2024-02-26T06:06:05;93631.47;;;4.35;100.00
44297;BME280;51842;47.450;8.654;2024-02-26T06:08:31;93648.66;;;4.33;100.00
44297;BME280;51842;47.450;8.654;2024-02-26T06:10:56;93639.69;;;4.29;100.00
44297;BME280;51842;47.450;8.654;2024-02-26T06:13:22;93630.22;;;4.28;100.00
44297;BME280;51842;47.450;8.654;2024-02-26T06:15:48;93637.84;;;4.29;100.00
44297;BME280;51842;47.450;8.654;2024-02-26T06:18:14;93634.69;;;4.27;100.00
44297;BME280;51842;47.450;8.654;2024-02-26T06:20:39;93638.94;;;4.23;100.00
44297;BME280;51842;47.450;8.654;2024-02-26T06:23:05;93638.41;;;4.21;100.00
44297;BME280;51842;47.450;8.654;2024-02-26T06:25:31;93630.28;;;4.17;100.00
44297;BME280;51842;47.450;8.654;2024-02-26T06:27:57;93621.59;;;4.17;100.00
44297;BME280;51842;47.450;8.654;2024-02-26T06:30:23;93612.88;;;4.16;100.00
44297;BME280;51842;47.450;8.654;2024-02-26T06:32:48;93608.66;;;4.15;100.00
44297;BME280;51842;47.450;8.654;2024-02-26T06:35:14;93617.34;;;4.16;100.00
44297;BME280;51842;47.450;8.654;2024-02-26T06:37:40;93615.25;;;4.18;100.00
44297;BME280;51842;47.450;8.654;2024-02-26T06:40:07;93618.13;;;4.22;100.00
44297;BME280;51842;47.450;8.654;2024-02-26T06:42:33;93613.13;;;4.20;100.00
44297;BME280;51842;47.450;8.654;2024-02-26T06:44:59;93621.00;;;4.25;100.00
44297;BME280;51842;47.450;8.654;2024-02-26T06:47:25;93619.66;;;4.28;100.00
44297;BME280;51842;47.450;8.654;2024-02-26T06:49:51;93631.22;;;4.37;100.00
44297;BME280;51842;47.450;8.654;2024-02-26T06:52:17;93640.66;;;4.43;100.00
44297;BME280;51842;47.450;8.654;2024-02-26T06:54:43;93642.75;;;4.51;100.00
44297;BME280;51842;47.450;8.654;2024-02-26T06:57:10;93644.78;;;4.59;100.00
44297;BME280;51842;47.450;8.654;2024-02-26T06:59:36;93645.00;;;4.63;100.00
44297;BME280;51842;47.450;8.654;2024-02-26T07:02:02;93641.28;;;4.69;100.00
44297;BME280;51842;47.450;8.654;2024-02-26T07:04:28;93638.34;;;4.76;100.00
44297;BME280;51842;47.450;8.654;2024-02-26T07:06:54;93649.13;;;4.79;100.00
44297;BME280;51842;47.450;8.654;2024-02-26T07:09:20;93645.69;;;4.79;100.00
44297;BME280;51842;47.450;8.654;2024-02-26T07:11:46;93646.75;;;4.83;100.00
44297;BME280;51842;47.450;8.654;2024-02-26T07:14:13;93653.59;;;4.84;100.00
44297;BME280;51842;47.450;8.654;2024-02-26T07:16:39;93658.56;;;4.85;100.00
44297;BME280;51842;47.450;8.654;2024-02-26T07:19:05;93661.47;;;4.89;100.00
44297;BME280;51842;47.450;8.654;2024-02-26T07:21:31;93658.00;;;4.94;100.00
44297;BME280;51842;47.450;8.654;2024-02-26T07:23:57;93656.09;;;4.99;100.00
44297;BME280;51842;47.450;8.654;2024-02-26T07:26:23;93655.78;;;5.06;100.00
44297;BME280;51842;47.450;8.654;2024-02-26T07:28:50;93653.91;;;5.12;100.00
44297;BME280;51842;47.450;8.654;2024-02-26T07:31:18;93666.25;;;5.16;100.00
44297;BME280;51842;47.450;8.654;2024-02-26T07:33:43;93661.72;;;5.22;100.00
44297;BME280;51842;47.450;8.654;2024-02-26T07:36:09;93670.34;;;5.32;100.00
44297;BME280;51842;47.450;8.654;2024-02-26T07:38:35;93659.38;;;5.49;100.00
44297;BME280;51842;47.450;8.654;2024-02-26T07:41:03;93654.72;;;5.65;99.55
44297;BME280;51842;47.450;8.654;2024-02-26T07:43:29;93651.22;;;5.99;99.48
44297;BME280;51842;47.450;8.654;2024-02-26T07:45:55;93656.00;;;6.40;96.86
44297;BME280;51842;47.450;8.654;2024-02-26T07:48:21;93650.19;;;6.57;91.07
44297;BME280;51842;47.450;8.654;2024-02-26T07:50:47;93656.44;;;6.66;88.83
44297;BME280;51842;47.450;8.654;2024-02-26T07:53:13;93651.28;;;6.75;89.00
44297;BME280;51842;47.450;8.654;2024-02-26T07:55:39;93662.19;;;7.06;88.33
44297;BME280;51842;47.450;8.654;2024-02-26T07:58:05;93658.75;;;7.38;87.29
44297;BME280;51842;47.450;8.654;2024-02-26T08:00:31;93661.66;;;7.69;84.19
44297;BME280;51842;47.450;8.654;2024-02-26T08:02:57;93656.19;;;8.07;82.67
44297;BME280;51842;47.450;8.654;2024-02-26T08:05:22;93644.19;;;8.51;80.08
44297;BME280;51842;47.450;8.654;2024-02-26T08:07:48;93633.50;;;8.78;76.91
44297;BME280;51842;47.450;8.654;2024-02-26T08:10:14;93641.22;;;8.89;75.57
44297;BME280;51842;47.450;8.654;2024-02-26T08:12:40;93648.66;;;9.00;73.48
44297;BME280;51842;47.450;8.654;2024-02-26T08:15:07;93650.13;;;9.07;73.50
44297;BME280;51842;47.450;8.654;2024-02-26T08:17:33;93660.06;;;9.23;73.11
44297;BME280;51842;47.450;8.654;2024-02-26T08:20:01;93655.28;;;9.57;71.61
44297;BME280;51842;47.450;8.654;2024-02-26T08:22:28;93648.38;;;9.87;69.81
44297;BME280;51842;47.450;8.654;2024-02-26T08:24:53;93650.28;;;10.26;67.75
44297;BME280;51842;47.450;8.654;2024-02-26T08:27:19;93654.41;;;10.58;65.02
44297;BME280;51842;47.450;8.654;2024-02-26T08:29:45;93656.03;;;10.94;63.14
44297;BME280;51842;47.450;8.654;2024-02-26T08:32:11;93660.72;;;10.88;61.68
44297;BME280;51842;47.450;8.654;2024-02-26T08:34:37;93664.00;;;11.11;61.72
44297;BME280;51842;47.450;8.654;2024-02-26T08:37:03;93665.88;;;11.37;57.91
44297;BME280;51842;47.450;8.654;2024-02-26T08:39:29;93662.91;;;11.39;58.46
44297;BME280;51842;47.450;8.654;2024-02-26T08:41:55;93658.50;;;11.43;57.75
44297;BME280;51842;47.450;8.654;2024-02-26T08:44:20;93655.22;;;11.46;58.36
44297;BME280;51842;47.450;8.654;2024-02-26T08:46:46;93656.94;;;11.42;57.64
44297;BME280;51842;47.450;8.654;2024-02-26T08:49:12;93659.31;;;11.34;57.55
44297;BME280;51842;47.450;8.654;2024-02-26T08:51:43;93667.13;;;11.48;56.94
44297;BME280;51842;47.450;8.654;2024-02-26T08:54:09;93679.19;;;11.46;56.76
44297;BME280;51842;47.450;8.654;2024-02-26T08:56:35;93683.25;;;11.61;56.11
44297;BME280;51842;47.450;8.654;2024-02-26T08:59:01;93696.44;;;11.31;55.01
44297;BME280;51842;47.450;8.654;2024-02-26T09:01:31;93692.53;;;11.46;55.89
44297;BME280;51842;47.450;8.654;2024-02-26T09:03:57;93691.91;;;11.49;55.91
44297;BME280;51842;47.450;8.654;2024-02-26T09:06:23;93691.13;;;11.57;55.37
44297;BME280;51842;47.450;8.654;2024-02-26T09:08:49;93682.50;;;11.51;54.93
44297;BME280;51842;47.450;8.654;2024-02-26T09:11:15;93681.72;;;11.42;55.69
44297;BME280;51842;47.450;8.654;2024-02-26T09:13:41;93679.38;;;11.32;55.63
44297;BME280;51842;47.450;8.654;2024-02-26T09:16:08;93675.78;;;11.19;56.00
44297;BME280;51842;47.450;8.654;2024-02-26T09:18:34;93683.88;;;10.53;58.67
44297;BME280;51842;47.450;8.654;2024-02-26T09:21:00;93677.28;;;10.51;57.98
44297;BME280;51842;47.450;8.654;2024-02-26T09:23:29;93668.50;;;10.50;57.50
44297;BME280;51842;47.450;8.654;2024-02-26T09:25:55;93674.88;;;10.32;57.28
44297;BME280;51842;47.450;8.654;2024-02-26T09:28:21;93673.28;;;10.31;58.42
44297;BME280;51842;47.450;8.654;2024-02-26T09:30:47;93668.84;;;10.17;60.21
44297;BME280;51842;47.450;8.654;2024-02-26T09:33:15;93665.81;;;10.02;61.71
44297;BME280;51842;47.450;8.654;2024-02-26T09:35:41;93665.31;;;9.91;60.64
44297;BME280;51842;47.450;8.654;2024-02-26T09:38:07;93663.50;;;9.78;62.75
44297;BME280;51842;47.450;8.654;2024-02-26T09:40:33;93657.13;;;9.79;63.15
44297;BME280;51842;47.450;8.654;2024-02-26T09:43:00;93659.59;;;9.75;64.60
44297;BME280;51842;47.450;8.654;2024-02-26T09:45:33;93655.97;;;9.71;65.17
44297;BME280;51842;47.450;8.654;2024-02-26T09:48:03;93662.81;;;9.94;64.45
44297;BME280;51842;47.450;8.654;2024-02-26T09:50:30;93673.88;;;10.19;63.41
44297;BME280;51842;47.450;8.654;2024-02-26T09:52:58;93675.22;;;10.48;62.64
44297;BME280;51842;47.450;8.654;2024-02-26T09:55:25;93681.88;;;10.76;61.05
44297;BME280;51842;47.450;8.654;2024-02-26T09:57:52;93678.91;;;10.95;59.30
44297;BME280;51842;47.450;8.654;2024-02-26T10:00:21;93689.41;;;11.18;57.80
44297;BME280;51842;47.450;8.654;2024-02-26T10:02:48;93688.31;;;11.27;59.26
44297;BME280;51842;47.450;8.654;2024-02-26T10:05:19;93690.81;;;11.32;58.15
44297;BME280;51842;47.450;8.654;2024-02-26T10:07:46;93689.72;;;11.25;57.99
44297;BME280;51842;47.450;8.654;2024-02-26T10:10:17;93689.72;;;11.16;57.63
44297;BME280;51842;47.450;8.654;2024-02-26T10:12:43;93695.50;;;11.18;59.91
44297;BME280;51842;47.450;8.654;2024-02-26T10:15:09;93689.59;;;11.13;58.95
44297;BME280;51842;47.450;8.654;2024-02-26T10:17:36;93688.78;;;10.95;59.69
44297;BME280;51842;47.450;8.654;2024-02-26T10:20:14;93688.13;;;10.80;62.01
44297;BME280;51842;47.450;8.654;2024-02-26T10:22:41;93692.03;;;10.74;63.15
44297;BME280;51842;47.450;8.654;2024-02-26T10:25:08;93688.41;;;10.61;62.39
44297;BME280;51842;47.450;8.654;2024-02-26T10:27:35;93690.59;;;10.68;61.87
44297;BME280;51842;47.450;8.654;2024-02-26T10:30:21;93689.47;;;10.52;63.01
44297;BME280;51842;47.450;8.654;2024-02-26T10:32:49;93698.13;;;10.57;63.00
44297;BME280;51842;47.450;8.654;2024-02-26T10:35:17;93700.47;;;10.68;63.34
44297;BME280;51842;47.450;8.654;2024-02-26T10:37:44;93700.03;;;10.74;63.28
44297;BME280;51842;47.450;8.654;2024-02-26T10:40:14;93704.88;;;10.72;63.44
44297;BME280;51842;47.450;8.654;2024-02-26T10:42:42;93702.38;;;10.76;62.91
44297;BME280;51842;47.450;8.654;2024-02-26T10:45:10;93705.84;;;10.76;62.93
44297;BME280;51842;47.450;8.654;2024-02-26T10:47:37;93709.25;;;10.68;63.47
44297;BME280;51842;47.450;8.654;2024-02-26T10:50:06;93717.59;;;10.75;62.92
44297;BME280;51842;47.450;8.654;2024-02-26T10:52:36;93724.09;;;10.52;62.03
44297;BME280;51842;47.450;8.654;2024-02-26T10:55:05;93720.81;;;10.55;63.84
44297;BME280;51842;47.450;8.654;2024-02-26T10:57:38;93719.13;;;10.68;64.33
44297;BME280;51842;47.450;8.654;2024-02-26T11:00:06;93730.13;;;10.83;63.59
44297;BME280;51842;47.450;8.654;2024-02-26T11:02:34;93727.19;;;10.94;63.49
44297;BME280;51842;47.450;8.654;2024-02-26T11:05:05;93726.88;;;11.04;64.20
44297;BME280;51842;47.450;8.654;2024-02-26T11:07:35;93718.38;;;10.84;61.73
44297;BME280;51842;47.450;8.654;2024-02-26T11:10:05;93717.91;;;10.82;60.80
44297;BME280;51842;47.450;8.654;2024-02-26T11:12:33;93720.25;;;10.84;59.82
44297;BME280;51842;47.450;8.654;2024-02-26T11:15:03;93711.81;;;10.91;60.67
44297;BME280;51842;47.450;8.654;2024-02-26T11:17:30;93716.34;;;10.90;60.26
44297;BME280;51842;47.450;8.654;2024-02-26T11:19:59;93711.00;;;10.90;60.63
44297;BME280;51842;47.450;8.654;2024-02-26T11:22:26;93713.06;;;11.02;60.39
44297;BME280;51842;47.450;8.654;2024-02-26T11:24:57;93715.25;;;11.00;60.04
44297;BME280;51842;47.450;8.654;2024-02-26T11:27:44;93716.22;;;11.04;59.13
44297;BME280;51842;47.450;8.654;2024-02-26T11:30:14;93725.78;;;11.14;58.22
44297;BME280;51842;47.450;8.654;2024-02-26T11:32:45;93727.19;;;11.11;59.36
44297;BME280;51842;47.450;8.654;2024-02-26T11:35:13;93719.97;;;10.94;59.71
44297;BME280;51842;47.450;8.654;2024-02-26T11:37:50;93719.63;;;10.87;60.17
44297;BME280;51842;47.450;8.654;2024-02-26T11:40:18;93720.25;;;10.84;61.37
44297;BME280;51842;47.450;8.654;2024-02-26T11:42:45;93719.31;;;10.88;61.17
44297;BME280;51842;47.450;8.654;2024-02-26T11:48:14;93732.81;;;10.92;61.54
44297;BME280;51842;47.450;8.654;2024-02-26T11:50:42;93725.59;;;10.93;61.14
44297;BME280;51842;47.450;8.654;2024-02-26T11:53:32;93721.53;;;11.04;60.64
44297;BME280;51842;47.450;8.654;2024-02-26T11:58:46;93729.06;;;11.02;60.60
44297;BME280;51842;47.450;8.654;2024-02-26T12:01:41;93725.28;;;10.85;60.58
44297;BME280;51842;47.450;8.654;2024-02-26T12:04:26;93726.22;;;10.98;60.96
44297;BME280;51842;47.450;8.654;2024-02-26T12:06:58;93720.75;;;11.12;60.64
44297;BME280;51842;47.450;8.654;2024-02-26T12:09:41;93713.53;;;10.95;61.39
44297;BME280;51842;47.450;8.654;2024-02-26T12:12:17;93714.00;;;11.06;61.00
44297;BME280;51842;47.450;8.654;2024-02-26T12:14:56;93714.78;;;11.15;61.43
44297;BME280;51842;47.450;8.654;2024-02-26T12:17:26;93708.38;;;11.16;60.36
44297;BME280;51842;47.450;8.654;2024-02-26T12:19:52;93715.44;;;11.21;60.02
44297;BME280;51842;47.450;8.654;2024-02-26T12:22:20;93712.75;;;11.12;60.45
44297;BME280;51842;47.450;8.654;2024-02-26T12:24:46;93716.38;;;11.16;59.49
44297;BME280;51842;47.450;8.654;2024-02-26T12:27:12;93709.63;;;11.19;59.18
44297;BME280;51842;47.450;8.654;2024-02-26T12:29:39;93706.34;;;11.13;59.47
44297;BME280;51842;47.450;8.654;2024-02-26T12:32:06;93707.44;;;11.12;59.04
44297;BME280;51842;47.450;8.654;2024-02-26T12:34:33;93708.38;;;11.07;57.23
44297;BME280;51842;47.450;8.654;2024-02-26T12:36:59;93698.94;;;10.93;58.71
44297;BME280;51842;47.450;8.654;2024-02-26T12:39:25;93705.41;;;11.18;59.30
44297;BME280;51842;47.450;8.654;2024-02-26T12:41:52;93709.31;;;11.20;58.50
44297;BME280;51842;47.450;8.654;2024-02-26T12:44:25;93703.34;;;11.06;58.32
44297;BME280;51842;47.450;8.654;2024-02-26T12:46:51;93697.56;;;11.30;56.85
44297;BME280;51842;47.450;8.654;2024-02-26T12:49:25;93693.78;;;11.57;55.74
44297;BME280;51842;47.450;8.654;2024-02-26T12:51:51;93698.47;;;11.60;55.40
44297;BME280;51842;47.450;8.654;2024-02-26T12:54:17;93695.47;;;11.70;54.01
44297;BME280;51842;47.450;8.654;2024-02-26T12:56:43;93692.47;;;11.80;52.95
44297;BME280;51842;47.450;8.654;2024-02-26T12:59:09;93689.34;;;11.87;53.03
44297;BME280;51842;47.450;8.654;2024-02-26T13:01:36;93689.44;;;12.08;52.81
44297;BME280;51842;47.450;8.654;2024-02-26T13:04:03;93688.03;;;12.11;52.78
44297;BME280;51842;47.450;8.654;2024-02-26T13:06:33;93681.97;;;12.31;53.89
44297;BME280;51842;47.450;8.654;2024-02-26T13:09:00;93689.81;;;12.36;53.26